sensor_id;sensor_type;location;lat;lon;timestamp;P1;durP1;ratioP1;P2;durP2;ratioP2
49582;SDS011;36329;48.816;44.624;2024-02-21T00:00:30;4.5;;;1.7;;
49582;SDS011;36329;48.816;44.624;2024-02-21T00:03:32;6.3;;;1.5;;
49582;SDS011;36329;48.816;44.624;2024-02-21T00:06:34;6.9;;;1.5;;
49582;SDS011;36329;48.816;44.624;2024-02-21T00:09:36;5;;;1.4;;
49582;SDS011;36329;48.816;44.624;2024-02-21T00:12:38;6.3;;;1.4;;
49582;SDS011;36329;48.816;44.624;2024-02-21T00:15:41;4.5;;;1.5;;
49582;SDS011;36329;48.816;44.624;2024-02-21T00:18:43;3.9;;;1.4;;
49582;SDS011;36329;48.816;44.624;2024-02-21T00:21:45;4.4;;;1.2;;
49582;SDS011;36329;48.816;44.624;2024-02-21T00:24:48;4.9;;;1.4;;
49582;SDS011;36329;48.816;44.624;2024-02-21T00:27:50;6.5;;;1.3;;
49582;SDS011;36329;48.816;44.624;2024-02-21T00:30:52;4.1;;;1.3;;
49582;SDS011;36329;48.816;44.624;2024-02-21T00:33:54;5.6;;;1.2;;
49582;SDS011;36329;48.816;44.624;2024-02-21T00:36:56;2.6;;;1.2;;
49582;SDS011;36329;48.816;44.624;2024-02-21T00:39:58;4.1;;;1.6;;
49582;SDS011;36329;48.816;44.624;2024-02-21T00:43:00;3.1;;;1.2;;
49582;SDS011;36329;48.816;44.624;2024-02-21T00:46:02;2.2;;;1.2;;
49582;SDS011;36329;48.816;44.624;2024-02-21T00:49:04;1.9;;;0.9;;
49582;SDS011;36329;48.816;44.624;2024-02-21T00:52:06;2.9;;;1.2;;
49582;SDS011;36329;48.816;44.624;2024-02-21T00:55:09;2.5;;;1.4;;
49582;SDS011;36329;48.816;44.624;2024-02-21T00:58:11;2.6;;;1.2;;
49582;SDS011;36329;48.816;44.624;2024-02-21T01:01:13;3.2;;;1.3;;
49582;SDS011;36329;48.816;44.624;2024-02-21T01:04:15;2.5;;;1.3;;
49582;SDS011;36329;48.816;44.624;2024-02-21T01:07:17;8.5;;;1.4;;
49582;SDS011;36329;48.816;44.624;2024-02-21T01:10:19;3.4;;;1.1;;
49582;SDS011;36329;48.816;44.624;2024-02-21T01:13:21;2.6;;;1.3;;
49582;SDS011;36329;48.816;44.624;2024-02-21T01:16:24;2.9;;;1;;
49582;SDS011;36329;48.816;44.624;2024-02-21T01:19:27;2.9;;;1.2;;
49582;SDS011;36329;48.816;44.624;2024-02-21T01:22:29;2.9;;;1.5;;
49582;SDS011;36329;48.816;44.624;2024-02-21T01:25:31;2.8;;;1.3;;
49582;SDS011;36329;48.816;44.624;2024-02-21T01:28:33;2.7;;;1.1;;
49582;SDS011;36329;48.816;44.624;2024-02-21T01:31:36;5.5;;;1.4;;
49582;SDS011;36329;48.816;44.624;2024-02-21T01:34:38;4.9;;;1.4;;
49582;SDS011;36329;48.816;44.624;2024-02-21T01:37:40;2.5;;;1.4;;
49582;SDS011;36329;48.816;44.624;2024-02-21T01:40:42;4.1;;;1.1;;
49582;SDS011;36329;48.816;44.624;2024-02-21T01:43:44;2.6;;;1.3;;
49582;SDS011;36329;48.816;44.624;2024-02-21T01:46:46;2.4;;;1.3;;
49582;SDS011;36329;48.816;44.624;2024-02-21T01:49:49;1.5;;;1.1;;
49582;SDS011;36329;48.816;44.624;2024-02-21T01:52:51;1.6;;;1.1;;
49582;SDS011;36329;48.816;44.624;2024-02-21T01:55:53;2.9;;;1.5;;
49582;SDS011;36329;48.816;44.624;2024-02-21T01:58:56;1.4;;;1.1;;
49582;SDS011;36329;48.816;44.624;2024-02-21T02:01:58;2.5;;;1.3;;
49582;SDS011;36329;48.816;44.624;2024-02-21T02:05:00;4;;;1.5;;
49582;SDS011;36329;48.816;44.624;2024-02-21T02:08:03;2.2;;;1.4;;
49582;SDS011;36329;48.816;44.624;2024-02-21T02:11:06;4.4;;;1.2;;
49582;SDS011;36329;48.816;44.624;2024-02-21T02:14:08;1.9;;;1.2;;
49582;SDS011;36329;48.816;44.624;2024-02-21T02:17:10;3.8;;;1.4;;
49582;SDS011;36329;48.816;44.624;2024-02-21T02:20:13;2.5;;;1.4;;
49582;SDS011;36329;48.816;44.624;2024-02-21T02:23:19;2;;;1.4;;
49582;SDS011;36329;48.816;44.624;2024-02-21T02:26:22;3.3;;;1.5;;
49582;SDS011;36329;48.816;44.624;2024-02-21T02:29:24;2.6;;;1.4;;
49582;SDS011;36329;48.816;44.624;2024-02-21T02:32:26;3.6;;;1.4;;
49582;SDS011;36329;48.816;44.624;2024-02-21T02:35:28;2;;;1.2;;
49582;SDS011;36329;48.816;44.624;2024-02-21T02:38:30;3.4;;;1.3;;
49582;SDS011;36329;48.816;44.624;2024-02-21T02:41:34;2.3;;;1.4;;
49582;SDS011;36329;48.816;44.624;2024-02-21T02:44:36;1.7;;;1.1;;
49582;SDS011;36329;48.816;44.624;2024-02-21T02:47:39;3;;;1.7;;
49582;SDS011;36329;48.816;44.624;2024-02-21T02:50:42;3.6;;;1.8;;
49582;SDS011;36329;48.816;44.624;2024-02-21T02:53:44;2.5;;;1.4;;
49582;SDS011;36329;48.816;44.624;2024-02-21T02:56:46;4;;;1.4;;
49582;SDS011;36329;48.816;44.624;2024-02-21T02:59:48;3.1;;;1.4;;
49582;SDS011;36329;48.816;44.624;2024-02-21T03:02:50;2.5;;;1.5;;
49582;SDS011;36329;48.816;44.624;2024-02-21T03:05:53;2;;;1.5;;
49582;SDS011;36329;48.816;44.624;2024-02-21T03:08:55;2.3;;;1.3;;
49582;SDS011;36329;48.816;44.624;2024-02-21T03:11:57;2.7;;;1.3;;
49582;SDS011;36329;48.816;44.624;2024-02-21T03:14:59;3.3;;;1.7;;
49582;SDS011;36329;48.816;44.624;2024-02-21T03:18:01;2.1;;;1.6;;
49582;SDS011;36329;48.816;44.624;2024-02-21T03:21:03;2.4;;;1.6;;
49582;SDS011;36329;48.816;44.624;2024-02-21T03:24:06;3.5;;;1.8;;
49582;SDS011;36329;48.816;44.624;2024-02-21T03:27:09;1.9;;;1.3;;
49582;SDS011;36329;48.816;44.624;2024-02-21T03:30:12;3.8;;;1.6;;
49582;SDS011;36329;48.816;44.624;2024-02-21T03:33:14;3.3;;;1.4;;
49582;SDS011;36329;48.816;44.624;2024-02-21T03:36:16;2;;;1.4;;
49582;SDS011;36329;48.816;44.624;2024-02-21T03:39:18;6.3;;;1.3;;
49582;SDS011;36329;48.816;44.624;2024-02-21T03:42:20;4.2;;;1.5;;
49582;SDS011;36329;48.816;44.624;2024-02-21T03:45:23;2.8;;;1.4;;
49582;SDS011;36329;48.816;44.624;2024-02-21T03:48:25;3.6;;;1.6;;
49582;SDS011;36329;48.816;44.624;2024-02-21T03:51:27;2.4;;;1.5;;
49582;SDS011;36329;48.816;44.624;2024-02-21T03:54:29;3.2;;;1.5;;
49582;SDS011;36329;48.816;44.624;2024-02-21T03:57:31;4.1;;;1.7;;
49582;SDS011;36329;48.816;44.624;2024-02-21T04:00:33;3.3;;;1.2;;
49582;SDS011;36329;48.816;44.624;2024-02-21T04:03:35;2.5;;;1.7;;
49582;SDS011;36329;48.816;44.624;2024-02-21T04:06:45;5.5;;;1.6;;
49582;SDS011;36329;48.816;44.624;2024-02-21T04:09:48;2.6;;;1.5;;
49582;SDS011;36329;48.816;44.624;2024-02-21T04:12:50;2.2;;;1.4;;
49582;SDS011;36329;48.816;44.624;2024-02-21T04:15:52;2.3;;;1.6;;
49582;SDS011;36329;48.816;44.624;2024-02-21T04:18:54;2.9;;;1.7;;
49582;SDS011;36329;48.816;44.624;2024-02-21T04:21:56;2.3;;;1.5;;
49582;SDS011;36329;48.816;44.624;2024-02-21T04:24:59;3.9;;;1.7;;
49582;SDS011;36329;48.816;44.624;2024-02-21T04:28:02;5.1;;;1.4;;
49582;SDS011;36329;48.816;44.624;2024-02-21T04:31:04;3.6;;;1.7;;
49582;SDS011;36329;48.816;44.624;2024-02-21T04:34:06;2.5;;;1.6;;
49582;SDS011;36329;48.816;44.624;2024-02-21T04:37:08;3.4;;;1.4;;
49582;SDS011;36329;48.816;44.624;2024-02-21T04:40:11;2.2;;;1.4;;
49582;SDS011;36329;48.816;44.624;2024-02-21T04:43:13;3.9;;;1.5;;
49582;SDS011;36329;48.816;44.624;2024-02-21T04:46:15;2.4;;;1.6;;
49582;SDS011;36329;48.816;44.624;2024-02-21T04:49:17;2.1;;;1.6;;
49582;SDS011;36329;48.816;44.624;2024-02-21T04:52:19;3.6;;;1.9;;
49582;SDS011;36329;48.816;44.624;2024-02-21T04:55:21;2.6;;;1.5;;
49582;SDS011;36329;48.816;44.624;2024-02-21T04:58:23;3.3;;;1.7;;
49582;SDS011;36329;48.816;44.624;2024-02-21T05:01:25;3;;;1.9;;
49582;SDS011;36329;48.816;44.624;2024-02-21T05:04:28;3.6;;;1.7;;
49582;SDS011;36329;48.816;44.624;2024-02-21T05:07:30;2.7;;;1.8;;
49582;SDS011;36329;48.816;44.624;2024-02-21T05:10:33;3.4;;;1.7;;
49582;SDS011;36329;48.816;44.624;2024-02-21T05:13:35;3;;;1.7;;
49582;SDS011;36329;48.816;44.624;2024-02-21T05:16:38;2.9;;;1.6;;
49582;SDS011;36329;48.816;44.624;2024-02-21T05:19:41;2.6;;;1.5;;
49582;SDS011;36329;48.816;44.624;2024-02-21T05:22:43;2.6;;;1.5;;
49582;SDS011;36329;48.816;44.624;2024-02-21T05:25:45;3;;;1.6;;
49582;SDS011;36329;48.816;44.624;2024-02-21T05:28:47;3.9;;;1.7;;
49582;SDS011;36329;48.816;44.624;2024-02-21T05:31:56;3.5;;;1.7;;
49582;SDS011;36329;48.816;44.624;2024-02-21T05:34:59;2.7;;;1.7;;
49582;SDS011;36329;48.816;44.624;2024-02-21T05:38:01;4.1;;;1.7;;
49582;SDS011;36329;48.816;44.624;2024-02-21T05:41:04;2.4;;;1.5;;
49582;SDS011;36329;48.816;44.624;2024-02-21T05:44:06;2.3;;;1.6;;
49582;SDS011;36329;48.816;44.624;2024-02-21T05:47:08;2.9;;;1.8;;
49582;SDS011;36329;48.816;44.624;2024-02-21T05:50:11;2.5;;;1.6;;
49582;SDS011;36329;48.816;44.624;2024-02-21T05:53:13;3;;;1.8;;
49582;SDS011;36329;48.816;44.624;2024-02-21T05:56:15;3.9;;;1.8;;
49582;SDS011;36329;48.816;44.624;2024-02-21T05:59:17;2.9;;;1.8;;
49582;SDS011;36329;48.816;44.624;2024-02-21T06:02:19;3.4;;;1.9;;
49582;SDS011;36329;48.816;44.624;2024-02-21T06:05:21;2.8;;;1.7;;
49582;SDS011;36329;48.816;44.624;2024-02-21T06:08:24;3.2;;;1.9;;
49582;SDS011;36329;48.816;44.624;2024-02-21T06:11:26;3;;;1.7;;
49582;SDS011;36329;48.816;44.624;2024-02-21T06:14:29;3;;;1.9;;
49582;SDS011;36329;48.816;44.624;2024-02-21T06:17:31;2.8;;;1.7;;
49582;SDS011;36329;48.816;44.624;2024-02-21T06:20:33;5.2;;;1.7;;
49582;SDS011;36329;48.816;44.624;2024-02-21T06:23:36;2.6;;;1.8;;
49582;SDS011;36329;48.816;44.624;2024-02-21T06:26:39;3.7;;;1.9;;
49582;SDS011;36329;48.816;44.624;2024-02-21T06:29:42;3.1;;;1.4;;
49582;SDS011;36329;48.816;44.624;2024-02-21T06:32:44;3.4;;;2;;
49582;SDS011;36329;48.816;44.624;2024-02-21T06:35:47;5.6;;;2.2;;
49582;SDS011;36329;48.816;44.624;2024-02-21T06:38:49;3.5;;;2.1;;
49582;SDS011;36329;48.816;44.624;2024-02-21T06:41:52;3.3;;;1.7;;
49582;SDS011;36329;48.816;44.624;2024-02-21T06:44:54;5;;;2;;
49582;SDS011;36329;48.816;44.624;2024-02-21T06:47:56;2.8;;;1.7;;
49582;SDS011;36329;48.816;44.624;2024-02-21T06:50:58;4.6;;;1.5;;
49582;SDS011;36329;48.816;44.624;2024-02-21T06:54:00;5.1;;;1.9;;
49582;SDS011;36329;48.816;44.624;2024-02-21T06:57:02;3.2;;;1.9;;
49582;SDS011;36329;48.816;44.624;2024-02-21T07:00:05;4.7;;;1.9;;
49582;SDS011;36329;48.816;44.624;2024-02-21T07:03:07;3.5;;;2.4;;
49582;SDS011;36329;48.816;44.624;2024-02-21T07:06:10;3.8;;;2.2;;
49582;SDS011;36329;48.816;44.624;2024-02-21T07:09:12;3.6;;;2.1;;
49582;SDS011;36329;48.816;44.624;2024-02-21T07:12:15;5.7;;;2.2;;
49582;SDS011;36329;48.816;44.624;2024-02-21T07:15:17;4.5;;;2.6;;
49582;SDS011;36329;48.816;44.624;2024-02-21T07:18:19;4.9;;;2.5;;
49582;SDS011;36329;48.816;44.624;2024-02-21T07:21:21;4.9;;;2.6;;
49582;SDS011;36329;48.816;44.624;2024-02-21T07:24:23;6.3;;;2.5;;
49582;SDS011;36329;48.816;44.624;2024-02-21T07:27:25;4.6;;;2.4;;
49582;SDS011;36329;48.816;44.624;2024-02-21T07:30:27;15.7;;;8.5;;
49582;SDS011;36329;48.816;44.624;2024-02-21T07:33:29;5.9;;;3.3;;
49582;SDS011;36329;48.816;44.624;2024-02-21T07:36:32;3.4;;;1.9;;
49582;SDS011;36329;48.816;44.624;2024-02-21T07:39:35;3.4;;;2;;
49582;SDS011;36329;48.816;44.624;2024-02-21T07:42:37;3.1;;;2;;
49582;SDS011;36329;48.816;44.624;2024-02-21T07:45:40;3.1;;;1.9;;
49582;SDS011;36329;48.816;44.624;2024-02-21T07:48:42;8.7;;;4.2;;
49582;SDS011;36329;48.816;44.624;2024-02-21T07:51:44;6.9;;;3.4;;
49582;SDS011;36329;48.816;44.624;2024-02-21T07:54:46;3.1;;;2.2;;
49582;SDS011;36329;48.816;44.624;2024-02-21T07:57:48;4.9;;;2.3;;
49582;SDS011;36329;48.816;44.624;2024-02-21T08:00:50;4.4;;;2.4;;
49582;SDS011;36329;48.816;44.624;2024-02-21T08:03:52;3.9;;;2.3;;
49582;SDS011;36329;48.816;44.624;2024-02-21T08:06:54;8.5;;;2.4;;
49582;SDS011;36329;48.816;44.624;2024-02-21T08:09:57;3.6;;;2;;
49582;SDS011;36329;48.816;44.624;2024-02-21T08:12:59;3.7;;;2.2;;
49582;SDS011;36329;48.816;44.624;2024-02-21T08:16:02;3.6;;;2.1;;
49582;SDS011;36329;48.816;44.624;2024-02-21T08:19:04;4.6;;;2.7;;
49582;SDS011;36329;48.816;44.624;2024-02-21T08:22:06;7.1;;;2.7;;
49582;SDS011;36329;48.816;44.624;2024-02-21T08:25:08;6.1;;;2.9;;
49582;SDS011;36329;48.816;44.624;2024-02-21T08:28:10;5.5;;;2.9;;
49582;SDS011;36329;48.816;44.624;2024-02-21T08:31:18;5.6;;;2.6;;
49582;SDS011;36329;48.816;44.624;2024-02-21T08:34:21;5.3;;;3.1;;
49582;SDS011;36329;48.816;44.624;2024-02-21T08:37:23;6.7;;;3.3;;
49582;SDS011;36329;48.816;44.624;2024-02-21T08:40:25;6.7;;;3.5;;
49582;SDS011;36329;48.816;44.624;2024-02-21T08:43:27;7.2;;;3.5;;
49582;SDS011;36329;48.816;44.624;2024-02-21T08:46:29;7.5;;;3.5;;
49582;SDS011;36329;48.816;44.624;2024-02-21T08:49:31;8.8;;;3.7;;
49582;SDS011;36329;48.816;44.624;2024-02-21T08:52:34;13.4;;;3.8;;
49582;SDS011;36329;48.816;44.624;2024-02-21T08:55:36;8.9;;;3.6;;
49582;SDS011;36329;48.816;44.624;2024-02-21T08:58:39;4.5;;;2.6;;
49582;SDS011;36329;48.816;44.624;2024-02-21T09:01:42;6.1;;;2.7;;
49582;SDS011;36329;48.816;44.624;2024-02-21T09:04:44;7.5;;;3;;
49582;SDS011;36329;48.816;44.624;2024-02-21T09:07:46;11.2;;;4.4;;
49582;SDS011;36329;48.816;44.624;2024-02-21T09:10:48;12.9;;;5.7;;
49582;SDS011;36329;48.816;44.624;2024-02-21T09:13:50;7.6;;;4.1;;
49582;SDS011;36329;48.816;44.624;2024-02-21T09:16:53;6.1;;;3.1;;
49582;SDS011;36329;48.816;44.624;2024-02-21T09:19:55;7.3;;;2.8;;
49582;SDS011;36329;48.816;44.624;2024-02-21T09:22:57;8.3;;;3.6;;
49582;SDS011;36329;48.816;44.624;2024-02-21T09:25:59;6.3;;;2.9;;
49582;SDS011;36329;48.816;44.624;2024-02-21T09:29:01;7.5;;;3.2;;
49582;SDS011;36329;48.816;44.624;2024-02-21T09:32:03;6.2;;;3;;
49582;SDS011;36329;48.816;44.624;2024-02-21T09:35:06;6.2;;;2.9;;
49582;SDS011;36329;48.816;44.624;2024-02-21T09:38:09;9.5;;;3.2;;
49582;SDS011;36329;48.816;44.624;2024-02-21T09:41:14;6.1;;;2.7;;
49582;SDS011;36329;48.816;44.624;2024-02-21T09:44:18;8.5;;;3.1;;
49582;SDS011;36329;48.816;44.624;2024-02-21T09:47:22;5.8;;;3.2;;
49582;SDS011;36329;48.816;44.624;2024-02-21T09:50:26;6.5;;;3.4;;
49582;SDS011;36329;48.816;44.624;2024-02-21T09:53:31;8.1;;;3.3;;
49582;SDS011;36329;48.816;44.624;2024-02-21T09:56:34;6.8;;;3.1;;
49582;SDS011;36329;48.816;44.624;2024-02-21T09:59:36;5.2;;;2.8;;
49582;SDS011;36329;48.816;44.624;2024-02-21T10:02:39;6.4;;;2.7;;
49582;SDS011;36329;48.816;44.624;2024-02-21T10:05:48;6.4;;;2.8;;
49582;SDS011;36329;48.816;44.624;2024-02-21T10:08:52;6.4;;;2.7;;
49582;SDS011;36329;48.816;44.624;2024-02-21T10:11:54;7.1;;;2.7;;
49582;SDS011;36329;48.816;44.624;2024-02-21T10:15:00;5.6;;;2.6;;
49582;SDS011;36329;48.816;44.624;2024-02-21T10:18:04;5.5;;;2.6;;
49582;SDS011;36329;48.816;44.624;2024-02-21T10:21:07;4.1;;;2.7;;
49582;SDS011;36329;48.816;44.624;2024-02-21T10:24:10;6.5;;;2.6;;
49582;SDS011;36329;48.816;44.624;2024-02-21T10:27:12;5.1;;;2.6;;
49582;SDS011;36329;48.816;44.624;2024-02-21T10:30:15;5.3;;;2.7;;
49582;SDS011;36329;48.816;44.624;2024-02-21T10:33:17;4.4;;;2.5;;
49582;SDS011;36329;48.816;44.624;2024-02-21T10:36:19;4.1;;;2.5;;
49582;SDS011;36329;48.816;44.624;2024-02-21T10:39:21;4.3;;;2.7;;
49582;SDS011;36329;48.816;44.624;2024-02-21T10:42:23;6.6;;;3;;
49582;SDS011;36329;48.816;44.624;2024-02-21T10:45:31;6.5;;;2.8;;
49582;SDS011;36329;48.816;44.624;2024-02-21T10:48:41;7.4;;;2.8;;
49582;SDS011;36329;48.816;44.624;2024-02-21T10:51:45;7.8;;;2.8;;
49582;SDS011;36329;48.816;44.624;2024-02-21T10:54:50;5.8;;;2.8;;
49582;SDS011;36329;48.816;44.624;2024-02-21T10:57:57;5.4;;;3.1;;
49582;SDS011;36329;48.816;44.624;2024-02-21T11:01:01;9.3;;;3.3;;
49582;SDS011;36329;48.816;44.624;2024-02-21T11:04:04;5;;;2.9;;
49582;SDS011;36329;48.816;44.624;2024-02-21T11:07:07;5.6;;;2.9;;
49582;SDS011;36329;48.816;44.624;2024-02-21T11:13:30;5.5;;;3;;
49582;SDS011;36329;48.816;44.624;2024-02-21T11:16:37;9;;;3;;
49582;SDS011;36329;48.816;44.624;2024-02-21T11:19:41;6;;;3;;
49582;SDS011;36329;48.816;44.624;2024-02-21T11:22:43;9.2;;;3.4;;
49582;SDS011;36329;48.816;44.624;2024-02-21T11:25:45;7.7;;;3.2;;
49582;SDS011;36329;48.816;44.624;2024-02-21T11:28:56;7.8;;;3.5;;
49582;SDS011;36329;48.816;44.624;2024-02-21T11:31:59;6.9;;;3.1;;
49582;SDS011;36329;48.816;44.624;2024-02-21T11:35:06;6.1;;;3.3;;
49582;SDS011;36329;48.816;44.624;2024-02-21T11:38:12;8.7;;;3.5;;
49582;SDS011;36329;48.816;44.624;2024-02-21T11:41:15;6.9;;;3.1;;
49582;SDS011;36329;48.816;44.624;2024-02-21T11:44:17;8.1;;;3.1;;
49582;SDS011;36329;48.816;44.624;2024-02-21T11:47:19;8.2;;;3.5;;
49582;SDS011;36329;48.816;44.624;2024-02-21T11:50:21;6.5;;;3.4;;
49582;SDS011;36329;48.816;44.624;2024-02-21T11:53:23;5.9;;;3;;
49582;SDS011;36329;48.816;44.624;2024-02-21T11:56:25;6;;;3;;
49582;SDS011;36329;48.816;44.624;2024-02-21T11:59:30;8;;;3;;
49582;SDS011;36329;48.816;44.624;2024-02-21T12:02:32;7.9;;;3.6;;
49582;SDS011;36329;48.816;44.624;2024-02-21T12:05:34;5.8;;;3.2;;
49582;SDS011;36329;48.816;44.624;2024-02-21T12:08:44;7;;;3.2;;
49582;SDS011;36329;48.816;44.624;2024-02-21T12:11:56;5.9;;;3.6;;
49582;SDS011;36329;48.816;44.624;2024-02-21T12:15:00;9;;;2.9;;
49582;SDS011;36329;48.816;44.624;2024-02-21T12:18:04;7.6;;;3.4;;
49582;SDS011;36329;48.816;44.624;2024-02-21T12:21:06;7.5;;;3.4;;
49582;SDS011;36329;48.816;44.624;2024-02-21T12:24:12;6.4;;;3.8;;
49582;SDS011;36329;48.816;44.624;2024-02-21T12:27:15;7;;;3.6;;
49582;SDS011;36329;48.816;44.624;2024-02-21T12:30:17;6.9;;;3.3;;
49582;SDS011;36329;48.816;44.624;2024-02-21T12:33:20;6.7;;;3.4;;
49582;SDS011;36329;48.816;44.624;2024-02-21T12:36:23;6.4;;;3.3;;
49582;SDS011;36329;48.816;44.624;2024-02-21T12:39:25;8.3;;;3.2;;
49582;SDS011;36329;48.816;44.624;2024-02-21T12:42:27;8;;;3.1;;
49582;SDS011;36329;48.816;44.624;2024-02-21T12:45:30;6.7;;;3.1;;
49582;SDS011;36329;48.816;44.624;2024-02-21T12:48:32;8.2;;;3;;
49582;SDS011;36329;48.816;44.624;2024-02-21T12:51:35;7.7;;;2.7;;
49582;SDS011;36329;48.816;44.624;2024-02-21T12:54:37;8.5;;;2.8;;
49582;SDS011;36329;48.816;44.624;2024-02-21T12:57:40;7;;;2.7;;
49582;SDS011;36329;48.816;44.624;2024-02-21T13:00:42;7;;;3;;
49582;SDS011;36329;48.816;44.624;2024-02-21T13:03:44;5.5;;;2.8;;
49582;SDS011;36329;48.816;44.624;2024-02-21T13:06:46;5.3;;;2.7;;
49582;SDS011;36329;48.816;44.624;2024-02-21T13:09:48;7.7;;;2.7;;
49582;SDS011;36329;48.816;44.624;2024-02-21T13:12:51;5.3;;;2.8;;
49582;SDS011;36329;48.816;44.624;2024-02-21T13:15:53;4.5;;;2.5;;
49582;SDS011;36329;48.816;44.624;2024-02-21T13:18:55;5.5;;;2.5;;
49582;SDS011;36329;48.816;44.624;2024-02-21T13:21:57;7.2;;;2.7;;
49582;SDS011;36329;48.816;44.624;2024-02-21T13:24:59;6.9;;;2.6;;
49582;SDS011;36329;48.816;44.624;2024-02-21T13:28:02;4.7;;;2.3;;
49582;SDS011;36329;48.816;44.624;2024-02-21T13:31:04;4.7;;;2.1;;
49582;SDS011;36329;48.816;44.624;2024-02-21T13:34:07;5.2;;;2.2;;
49582;SDS011;36329;48.816;44.624;2024-02-21T13:37:09;4.6;;;2.5;;
49582;SDS011;36329;48.816;44.624;2024-02-21T13:40:11;3.5;;;2;;
49582;SDS011;36329;48.816;44.624;2024-02-21T13:43:13;3.8;;;2.3;;
49582;SDS011;36329;48.816;44.624;2024-02-21T13:46:16;4.2;;;2.2;;
49582;SDS011;36329;48.816;44.624;2024-02-21T13:49:18;3.5;;;2;;
49582;SDS011;36329;48.816;44.624;2024-02-21T13:52:20;7.7;;;2.3;;
49582;SDS011;36329;48.816;44.624;2024-02-21T13:55:22;3.2;;;1.9;;
49582;SDS011;36329;48.816;44.624;2024-02-21T13:58:24;6.5;;;2.3;;
49582;SDS011;36329;48.816;44.624;2024-02-21T14:01:26;3.6;;;2.1;;
49582;SDS011;36329;48.816;44.624;2024-02-21T14:04:28;6.4;;;2.5;;
49582;SDS011;36329;48.816;44.624;2024-02-21T14:07:30;5.3;;;1.9;;
49582;SDS011;36329;48.816;44.624;2024-02-21T14:10:33;5.8;;;2.2;;
49582;SDS011;36329;48.816;44.624;2024-02-21T14:13:35;4.4;;;2.5;;
49582;SDS011;36329;48.816;44.624;2024-02-21T14:16:37;4.7;;;2.1;;
49582;SDS011;36329;48.816;44.624;2024-02-21T14:19:39;4.2;;;2.5;;
49582;SDS011;36329;48.816;44.624;2024-02-21T14:22:42;5.4;;;2.4;;
49582;SDS011;36329;48.816;44.624;2024-02-21T14:25:44;4.1;;;2.3;;
49582;SDS011;36329;48.816;44.624;2024-02-21T14:28:47;4.2;;;2.5;;
49582;SDS011;36329;48.816;44.624;2024-02-21T14:31:49;5.9;;;2.5;;
49582;SDS011;36329;48.816;44.624;2024-02-21T14:34:51;4.6;;;2.3;;
49582;SDS011;36329;48.816;44.624;2024-02-21T14:37:54;5.8;;;2.5;;
49582;SDS011;36329;48.816;44.624;2024-02-21T14:40:56;3.7;;;2.1;;
49582;SDS011;36329;48.816;44.624;2024-02-21T14:43:59;7.2;;;2.6;;
49582;SDS011;36329;48.816;44.624;2024-02-21T14:47:01;5.9;;;2.7;;
49582;SDS011;36329;48.816;44.624;2024-02-21T14:50:03;4.2;;;2.5;;
49582;SDS011;36329;48.816;44.624;2024-02-21T14:53:06;5.3;;;2.5;;
49582;SDS011;36329;48.816;44.624;2024-02-21T14:56:12;5.3;;;2.9;;
49582;SDS011;36329;48.816;44.624;2024-02-21T14:59:15;6.5;;;2.6;;
49582;SDS011;36329;48.816;44.624;2024-02-21T15:02:17;9.7;;;3.3;;
49582;SDS011;36329;48.816;44.624;2024-02-21T15:05:19;6.5;;;2.8;;
49582;SDS011;36329;48.816;44.624;2024-02-21T15:08:21;6.5;;;2.8;;
49582;SDS011;36329;48.816;44.624;2024-02-21T15:11:23;9;;;3.2;;
49582;SDS011;36329;48.816;44.624;2024-02-21T15:14:25;5.2;;;2.8;;
49582;SDS011;36329;48.816;44.624;2024-02-21T15:17:28;9.4;;;3.2;;
49582;SDS011;36329;48.816;44.624;2024-02-21T15:20:30;6.4;;;3;;
49582;SDS011;36329;48.816;44.624;2024-02-21T15:23:32;5.6;;;3.1;;
49582;SDS011;36329;48.816;44.624;2024-02-21T15:26:34;6;;;3.2;;
49582;SDS011;36329;48.816;44.624;2024-02-21T15:29:36;5.3;;;3.1;;
49582;SDS011;36329;48.816;44.624;2024-02-21T15:32:39;5.5;;;3.1;;
49582;SDS011;36329;48.816;44.624;2024-02-21T15:35:41;6;;;2.9;;
49582;SDS011;36329;48.816;44.624;2024-02-21T15:38:43;5.5;;;3;;
49582;SDS011;36329;48.816;44.624;2024-02-21T15:41:46;6.5;;;2.8;;
49582;SDS011;36329;48.816;44.624;2024-02-21T15:44:48;12.3;;;3.1;;
49582;SDS011;36329;48.816;44.624;2024-02-21T15:47:51;7.3;;;3.4;;
49582;SDS011;36329;48.816;44.624;2024-02-21T15:50:53;6.3;;;2.8;;
49582;SDS011;36329;48.816;44.624;2024-02-21T15:53:55;7.8;;;3.2;;
49582;SDS011;36329;48.816;44.624;2024-02-21T15:56:57;6.3;;;3;;
49582;SDS011;36329;48.816;44.624;2024-02-21T15:59:59;6.8;;;2.9;;
49582;SDS011;36329;48.816;44.624;2024-02-21T16:03:02;5.2;;;3;;
49582;SDS011;36329;48.816;44.624;2024-02-21T16:06:05;5.4;;;3;;
49582;SDS011;36329;48.816;44.624;2024-02-21T16:09:07;6.8;;;3.3;;
49582;SDS011;36329;48.816;44.624;2024-02-21T16:12:09;6.5;;;3.1;;
49582;SDS011;36329;48.816;44.624;2024-02-21T16:15:11;8.6;;;3.2;;
49582;SDS011;36329;48.816;44.624;2024-02-21T16:18:13;6.4;;;3;;
49582;SDS011;36329;48.816;44.624;2024-02-21T16:21:15;5.8;;;3;;
49582;SDS011;36329;48.816;44.624;2024-02-21T16:24:17;8.1;;;3.5;;
49582;SDS011;36329;48.816;44.624;2024-02-21T16:27:20;6.7;;;3.5;;
49582;SDS011;36329;48.816;44.624;2024-02-21T16:30:22;10;;;3.6;;
49582;SDS011;36329;48.816;44.624;2024-02-21T16:33:24;7.4;;;3.5;;
49582;SDS011;36329;48.816;44.624;2024-02-21T16:36:27;9.2;;;4;;
49582;SDS011;36329;48.816;44.624;2024-02-21T16:39:29;7;;;3.1;;
49582;SDS011;36329;48.816;44.624;2024-02-21T16:42:31;8.3;;;3.9;;
49582;SDS011;36329;48.816;44.624;2024-02-21T16:45:34;9.8;;;4.6;;
49582;SDS011;36329;48.816;44.624;2024-02-21T16:48:36;17.1;;;8.1;;
49582;SDS011;36329;48.816;44.624;2024-02-21T16:51:38;21.4;;;9.8;;
49582;SDS011;36329;48.816;44.624;2024-02-21T16:54:40;14.9;;;6.6;;
49582;SDS011;36329;48.816;44.624;2024-02-21T16:57:42;11.5;;;5;;
49582;SDS011;36329;48.816;44.624;2024-02-21T17:00:45;14;;;5.7;;
49582;SDS011;36329;48.816;44.624;2024-02-21T17:03:47;16.6;;;6.1;;
49582;SDS011;36329;48.816;44.624;2024-02-21T17:06:49;20.9;;;7.5;;
49582;SDS011;36329;48.816;44.624;2024-02-21T17:09:51;20.2;;;6.7;;
49582;SDS011;36329;48.816;44.624;2024-02-21T17:12:53;24.7;;;7.1;;
49582;SDS011;36329;48.816;44.624;2024-02-21T17:15:56;17.4;;;6;;
49582;SDS011;36329;48.816;44.624;2024-02-21T17:18:58;15.2;;;6.3;;
49582;SDS011;36329;48.816;44.624;2024-02-21T17:22:00;12;;;5.4;;
49582;SDS011;36329;48.816;44.624;2024-02-21T17:25:02;14.7;;;5.7;;
49582;SDS011;36329;48.816;44.624;2024-02-21T17:28:05;14.5;;;5.6;;
49582;SDS011;36329;48.816;44.624;2024-02-21T17:31:07;11;;;5.1;;
49582;SDS011;36329;48.816;44.624;2024-02-21T17:34:09;13.5;;;5.4;;
49582;SDS011;36329;48.816;44.624;2024-02-21T17:37:11;12.2;;;5.6;;
49582;SDS011;36329;48.816;44.624;2024-02-21T17:40:14;17.3;;;6;;
49582;SDS011;36329;48.816;44.624;2024-02-21T17:43:17;10.5;;;5.3;;
49582;SDS011;36329;48.816;44.624;2024-02-21T17:46:20;19.7;;;6.2;;
49582;SDS011;36329;48.816;44.624;2024-02-21T17:49:22;12.4;;;4.8;;
49582;SDS011;36329;48.816;44.624;2024-02-21T17:52:24;16.1;;;5.5;;
49582;SDS011;36329;48.816;44.624;2024-02-21T17:55:27;13.7;;;5.3;;
49582;SDS011;36329;48.816;44.624;2024-02-21T17:58:30;12.9;;;5.2;;
49582;SDS011;36329;48.816;44.624;2024-02-21T18:01:34;11.3;;;4.8;;
49582;SDS011;36329;48.816;44.624;2024-02-21T18:04:37;14.6;;;5;;
49582;SDS011;36329;48.816;44.624;2024-02-21T18:07:39;13.7;;;5.1;;
49582;SDS011;36329;48.816;44.624;2024-02-21T18:10:41;13.4;;;4.8;;
49582;SDS011;36329;48.816;44.624;2024-02-21T18:13:43;11.4;;;5;;
49582;SDS011;36329;48.816;44.624;2024-02-21T18:16:46;12.6;;;5.4;;
49582;SDS011;36329;48.816;44.624;2024-02-21T18:19:49;10.2;;;5;;
49582;SDS011;36329;48.816;44.624;2024-02-21T18:22:52;12.3;;;5.5;;
49582;SDS011;36329;48.816;44.624;2024-02-21T18:25:54;14.5;;;5.6;;
49582;SDS011;36329;48.816;44.624;2024-02-21T18:28:56;16.4;;;6.2;;
49582;SDS011;36329;48.816;44.624;2024-02-21T18:31:58;15;;;6.1;;
49582;SDS011;36329;48.816;44.624;2024-02-21T18:35:06;12.6;;;6;;
49582;SDS011;36329;48.816;44.624;2024-02-21T18:38:10;12.4;;;5.3;;
49582;SDS011;36329;48.816;44.624;2024-02-21T18:41:12;14;;;5.8;;
49582;SDS011;36329;48.816;44.624;2024-02-21T18:44:16;11.6;;;5.4;;